Time;durP1;ratioP1;P1;durP2;ratioP2;P2;SDS_P1;SDS_P2;PMS_P1;PMS_P2;Temp;Humidity;BMP_temperature;BMP_pressure;BME280_temperature;BME280_humidity;BME280_pressure;Samples;Min_cycle;Max_cycle;Signal;HPM_P1;HPM_P2
2023/08/11 00:01:08;;;;;;;3.63;2.88;;;;;;;20.16;59.35;100640.97;10182234;28;20083;-59
2023/08/11 00:06:10;;;;;;;5.82;2.60;;;;;;;20.14;59.50;100643.84;10173068;28;20904;-59
2023/08/11 00:11:12;;;;;;;5.78;3.40;;;;;;;20.07;59.60;100642.91;10171524;28;20721;-60
2023/08/11 00:16:13;;;;;;;5.22;2.20;;;;;;;20.06;59.93;100651.19;10164316;28;20656;-59
2023/08/11 00:21:16;;;;;;;5.50;2.40;;;;;;;20.03;59.58;100646.97;10184373;28;20047;-59
2023/08/11 00:26:17;;;;;;;4.88;2.10;;;;;;;20.00;59.21;100646.50;10181416;28;20425;-59
2023/08/11 00:31:19;;;;;;;4.03;1.98;;;;;;;19.93;59.21;100646.34;10176870;28;20079;-59
2023/08/11 00:36:21;;;;;;;7.57;2.30;;;;;;;19.89;58.86;100655.78;10180335;28;20650;-60
2023/08/11 00:41:22;;;;;;;2.75;2.22;;;;;;;19.86;59.26;100648.03;10182937;28;20051;-60
2023/08/11 00:46:24;;;;;;;2.95;1.88;;;;;;;19.83;59.07;100656.50;10178337;28;20512;-60
2023/08/11 00:51:26;;;;;;;10.55;2.42;;;;;;;19.80;59.28;100660.38;10185990;28;20051;-59
2023/08/11 00:56:28;;;;;;;4.47;2.85;;;;;;;19.75;59.83;100658.19;10184536;28;20194;-59
2023/08/11 01:01:30;;;;;;;5.40;2.35;;;;;;;19.69;61.32;100649.94;10189930;28;20113;-59
2023/08/11 01:06:58;;;;;;;5.75;2.70;;;;;;;19.64;62.21;100653.16;10187140;28;20058;-60
2023/08/11 01:12:12;;;;;;;6.18;2.47;;;;;;;19.59;62.66;100647.41;10204990;28;20055;-59
2023/08/11 01:17:16;;;;;;;3.35;2.78;;;;;;;19.55;63.01;100648.81;10191039;28;20164;-59
2023/08/11 01:22:21;;;;;;;4.57;3.08;;;;;;;19.48;63.71;100642.41;10179699;28;20791;-62
2023/08/11 01:27:22;;;;;;;7.90;4.07;;;;;;;19.42;64.47;100644.75;10187783;28;20047;-59
2023/08/11 01:32:24;;;;;;;7.05;3.70;;;;;;;19.33;65.27;100643.09;10201830;28;20075;-59
2023/08/11 01:37:26;;;;;;;4.30;3.90;;;;;;;19.25;66.00;100653.91;10204018;28;20480;-60
2023/08/11 01:42:28;;;;;;;4.28;3.88;;;;;;;19.21;66.53;100652.56;10190151;28;20059;-60
2023/08/11 01:47:31;;;;;;;6.53;4.00;;;;;;;19.16;67.19;100654.94;10188396;28;20127;-66
2023/08/11 01:52:35;;;;;;;6.78;3.70;;;;;;;19.15;66.84;100643.28;10174778;28;21089;-59
2023/08/11 01:57:38;;;;;;;5.93;3.55;;;;;;;19.11;66.93;100635.72;10188139;28;20103;-60
2023/08/11 02:02:52;;;;;;;3.30;3.00;;;;;;;19.05;66.99;100630.00;10185310;28;20062;-59
2023/08/11 02:07:55;;;;;;;3.38;2.72;;;;;;;19.00;66.96;100632.34;10173527;28;20050;-60
2023/08/11 02:12:57;;;;;;;4.00;3.47;;;;;;;18.99;67.09;100633.38;10180129;28;20125;-60
2023/08/11 02:17:59;;;;;;;3.03;2.70;;;;;;;18.94;67.16;100635.72;10191283;28;20043;-60
2023/08/11 02:23:01;;;;;;;4.95;3.03;;;;;;;18.91;67.06;100638.75;10186508;28;20057;-59
2023/08/11 02:28:04;;;;;;;3.95;3.15;;;;;;;18.87;67.28;100632.00;10186556;28;20063;-59
2023/08/11 02:33:06;;;;;;;5.05;2.45;;;;;;;18.84;67.45;100633.16;10187366;28;20056;-59
2023/08/11 02:38:08;;;;;;;3.00;2.70;;;;;;;18.80;67.58;100621.03;10184814;28;20301;-60
2023/08/11 02:43:10;;;;;;;4.63;3.22;;;;;;;18.78;67.60;100624.91;10181738;28;20852;-60
2023/08/11 02:48:11;;;;;;;3.72;2.85;;;;;;;18.72;68.01;100624.56;10172487;28;20620;-59
2023/08/11 02:53:13;;;;;;;3.72;2.97;;;;;;;18.67;67.93;100626.91;10180926;28;20060;-59
2023/08/11 02:58:14;;;;;;;3.90;3.15;;;;;;;18.64;67.93;100634.50;10182144;28;20130;-59
2023/08/11 03:03:15;;;;;;;3.60;2.72;;;;;;;18.58;67.67;100630.63;10185326;28;20530;-59
2023/08/11 03:08:17;;;;;;;4.03;2.88;;;;;;;18.55;67.80;100630.94;10184277;28;20062;-60
2023/08/11 03:13:19;;;;;;;3.63;2.63;;;;;;;18.53;67.74;100627.59;10187336;28;20051;-59
2023/08/11 03:18:21;;;;;;;8.30;2.97;;;;;;;18.53;68.15;100632.97;10181290;28;20052;-59
2023/08/11 03:23:23;;;;;;;4.68;2.53;;;;;;;18.51;68.06;100625.06;10195018;28;20736;-59
2023/08/11 03:28:25;;;;;;;4.53;3.08;;;;;;;18.45;68.44;100625.72;10186794;28;20412;-60
2023/08/11 03:33:27;;;;;;;4.50;2.75;;;;;;;18.43;68.40;100632.28;10184873;28;20062;-60
2023/08/11 03:38:28;;;;;;;4.32;2.53;;;;;;;18.38;68.73;100630.91;10190144;28;20278;-59
2023/08/11 03:43:30;;;;;;;5.53;3.15;;;;;;;18.35;69.11;100623.16;10198549;28;20058;-60
2023/08/11 03:48:32;;;;;;;4.10;2.80;;;;;;;18.31;69.08;100629.88;10198637;28;20762;-60
2023/08/11 03:53:36;;;;;;;4.10;3.25;;;;;;;18.26;68.91;100629.56;10200616;28;20067;-59
2023/08/11 03:58:38;;;;;;;3.50;2.60;;;;;;;18.24;69.60;100636.97;10183782;28;20202;-59
2023/08/11 04:03:40;;;;;;;3.65;2.78;;;;;;;18.24;69.73;100638.78;10173156;28;20629;-61
2023/08/11 04:08:42;;;;;;;3.72;2.78;;;;;;;18.24;69.25;100645.06;10186742;28;20054;-60
2023/08/11 04:13:43;;;;;;;2.67;2.47;;;;;;;18.23;69.20;100648.75;10170939;28;20216;-60
2023/08/11 04:18:45;;;;;;;9.75;3.13;;;;;;;18.22;69.20;100640.81;10184203;28;20055;-60
2023/08/11 04:23:46;;;;;;;2.88;2.38;;;;;;;18.22;69.18;100636.28;10171675;28;20321;-60
2023/08/11 04:28:48;;;;;;;5.75;2.83;;;;;;;18.20;69.58;100638.28;10178982;28;20054;-60
2023/08/11 04:33:50;;;;;;;3.65;2.88;;;;;;;18.16;69.67;100640.44;10193595;28;20058;-60
2023/08/11 04:38:52;;;;;;;3.05;2.53;;;;;;;18.14;69.43;100638.94;10189670;28;20113;-59
2023/08/11 04:43:54;;;;;;;3.30;2.92;;;;;;;18.15;69.48;100640.63;10191569;28;20062;-60
2023/08/11 04:48:56;;;;;;;6.45;3.00;;;;;;;18.18;69.59;100643.00;10188013;28;20742;-60
2023/08/11 04:54:02;;;;;;;5.18;3.45;;;;;;;18.17;69.81;100644.00;10174425;28;20056;-59
2023/08/11 04:59:03;;;;;;;3.72;3.17;;;;;;;18.14;69.95;100633.56;10192494;28;20056;-59
2023/08/11 05:04:05;;;;;;;4.47;2.90;;;;;;;18.08;70.33;100645.84;10190936;28;20217;-59
2023/08/11 05:09:09;;;;;;;;;;;;;;;18.09;70.17;100650.22;10179263;28;20051;-59
2023/08/11 05:14:14;;;;;;;5.60;3.03;;;;;;;18.16;70.62;100661.16;10173071;28;19927;-60
2023/08/11 05:19:15;;;;;;;6.28;2.78;;;;;;;18.22;69.75;100663.22;10184951;28;20150;-59
2023/08/11 05:24:17;;;;;;;5.50;2.53;;;;;;;18.21;69.54;100666.94;10177107;28;20065;-60
2023/08/11 05:29:18;;;;;;;4.72;2.80;;;;;;;18.21;69.24;100672.31;10175785;28;20066;-60
2023/08/11 05:34:20;;;;;;;4.60;2.60;;;;;;;18.22;69.52;100668.59;10177313;28;20218;-59
2023/08/11 05:39:21;;;;;;;3.13;2.42;;;;;;;18.30;69.17;100665.94;10199859;28;20051;-60
2023/08/11 05:44:23;;;;;;;7.43;2.65;;;;;;;18.34;68.56;100678.06;10185739;28;20056;-60
2023/08/11 05:49:24;;;;;;;3.03;2.28;;;;;;;18.40;68.99;100681.97;10185741;28;20586;-60
2023/08/11 05:54:26;;;;;;;7.57;3.25;;;;;;;18.48;68.72;100673.03;10185106;28;20583;-60
2023/08/11 05:59:27;;;;;;;6.60;3.10;;;;;;;18.56;68.65;100678.47;10200919;28;20056;-60
2023/08/11 06:04:29;;;;;;;6.18;3.08;;;;;;;18.51;68.93;100672.72;10169144;28;20406;-60
2023/08/11 06:09:31;;;;;;;4.65;2.60;;;;;;;18.63;68.24;100668.72;10184710;28;20055;-59
2023/08/11 06:14:33;;;;;;;4.05;2.50;;;;;;;18.77;68.66;100678.00;10183582;28;20051;-60
2023/08/11 06:19:34;;;;;;;4.18;2.60;;;;;;;18.91;68.01;100673.81;10182456;28;20059;-60
2023/08/11 06:24:36;;;;;;;4.13;2.88;;;;;;;19.03;67.91;100680.56;10182403;28;20074;-59
2023/08/11 06:29:38;;;;;;;3.42;2.53;;;;;;;19.18;67.09;100677.19;10183263;28;20051;-59
2023/08/11 06:34:39;;;;;;;5.20;2.30;;;;;;;19.27;67.05;100678.88;10186164;28;20059;-59
2023/08/11 06:39:41;;;;;;;3.67;3.10;;;;;;;19.36;65.07;100677.00;10173019;28;20055;-59
2023/08/11 06:44:44;;;;;;;3.30;2.47;;;;;;;19.46;64.98;100676.84;10186448;28;20154;-59
2023/08/11 06:49:45;;;;;;;8.30;3.10;;;;;;;19.52;64.59;100676.16;10175952;28;20099;-59
2023/08/11 06:54:47;;;;;;;5.10;2.50;;;;;;;19.67;65.08;100687.91;10175456;28;20063;-59
2023/08/11 06:59:49;;;;;;;4.47;2.38;;;;;;;19.83;64.35;100683.50;10187066;28;20051;-65
2023/08/11 07:04:50;;;;;;;5.10;2.60;;;;;;;19.90;64.11;100687.22;10204117;28;20225;-59
2023/08/11 07:09:52;;;;;;;3.92;2.30;;;;;;;20.00;63.46;100690.56;10199485;28;20456;-60
2023/08/11 07:15:00;;;;;;;5.00;2.67;;;;;;;20.16;63.88;100705.00;10363083;27;20744;-59
2023/08/11 07:20:02;;;;;;;3.60;2.53;;;;;;;20.29;63.14;100703.41;10332479;28;20124;-59
2023/08/11 07:25:04;;;;;;;4.22;2.80;;;;;;;20.41;61.54;100705.75;10295607;28;20077;-59
2023/08/11 07:30:06;;;;;;;3.40;2.67;;;;;;;20.58;61.45;100709.19;10284236;28;20054;-59
2023/08/11 07:35:07;;;;;;;4.75;2.53;;;;;;;20.80;61.20;100708.41;10297077;28;20053;-60
2023/08/11 07:40:09;;;;;;;4.40;2.30;;;;;;;21.03;60.08;100707.56;10276685;28;20407;-60
2023/08/11 07:45:11;;;;;;;4.45;2.60;;;;;;;21.24;59.61;100703.34;10295708;28;20139;-60
2023/08/11 07:50:12;;;;;;;3.45;2.50;;;;;;;21.17;60.23;100698.66;10280431;28;20774;-59
2023/08/11 07:55:14;;;;;;;4.03;2.10;;;;;;;21.43;60.18;100708.22;10292103;28;20438;-63
2023/08/11 08:00:16;;;;;;;4.53;2.97;;;;;;;21.62;59.27;100701.47;10293655;28;20514;-59
2023/08/11 08:05:18;;;;;;;6.18;2.75;;;;;;;21.80;59.01;100709.25;10285616;28;20054;-59
2023/08/11 08:10:20;;;;;;;4.03;2.67;;;;;;;21.96;57.59;100701.94;10281162;28;20144;-59
2023/08/11 08:15:24;;;;;;;5.40;2.70;;;;;;;22.11;57.53;100700.06;10294338;28;20054;-60
2023/08/11 08:20:25;;;;;;;6.05;2.35;;;;;;;22.31;57.02;100702.19;10295941;28;20054;-59
2023/08/11 08:25:27;;;;;;;6.47;3.63;;;;;;;22.49;57.12;100705.38;10253438;28;20050;-59
2023/08/11 08:30:29;;;;;;;6.70;3.80;;;;;;;22.62;55.69;100699.25;10268161;28;20160;-59
2023/08/11 08:35:30;;;;;;;5.18;3.40;;;;;;;22.77;55.79;100701.91;10230013;28;20055;-58
2023/08/11 08:40:34;;;;;;;7.57;3.78;;;;;;;22.93;54.65;100709.78;10267244;28;20061;-59
2023/08/11 08:45:38;;;;;;;7.75;4.03;;;;;;;23.02;53.51;100701.53;10264462;28;20090;-62
2023/08/11 08:50:39;;;;;;;7.63;3.60;;;;;;;23.19;53.31;100705.66;10266616;28;20129;-60
2023/08/11 08:55:41;;;;;;;6.60;2.97;;;;;;;23.43;52.72;100692.72;10244875;28;20739;-60
2023/08/11 09:00:43;;;;;;;5.55;3.30;;;;;;;23.67;49.70;100704.16;10263324;28;20070;-62
2023/08/11 09:05:45;;;;;;;4.32;1.88;;;;;;;23.84;51.30;100702.81;10267952;28;20121;-60
2023/08/11 09:10:46;;;;;;;3.40;2.47;;;;;;;24.07;50.66;100693.56;10252164;28;20604;-60
2023/08/11 09:15:49;;;;;;;6.57;1.98;;;;;;;24.18;50.21;100688.38;10251681;28;20055;-60
2023/08/11 09:20:50;;;;;;;5.80;2.60;;;;;;;24.35;47.10;100688.03;10250760;28;20058;-60
2023/08/11 09:25:54;;;;;;;4.45;2.13;;;;;;;24.38;48.69;100684.03;10254265;28;20502;-60
2023/08/11 09:30:56;;;;;;;6.20;2.20;;;;;;;24.61;49.19;100679.13;10245889;28;20051;-61
2023/08/11 09:35:58;;;;;;;3.42;2.00;;;;;;;24.85;49.30;100669.53;10265381;28;20059;-61
2023/08/11 09:41:05;;;;;;;3.88;1.90;;;;;;;25.18;49.13;100668.72;10265449;28;20164;-61
2023/08/11 09:46:06;;;;;;;3.90;2.20;;;;;;;25.44;48.42;100671.66;10250875;28;20088;-61
2023/08/11 09:51:12;;;;;;;5.13;2.08;;;;;;;25.62;46.86;100677.28;10263126;28;20054;-61
2023/08/11 09:56:16;;;;;;;3.90;2.45;;;;;;;25.68;46.89;100670.97;10268036;28;20395;-61
2023/08/11 10:01:20;;;;;;;2.70;1.85;;;;;;;25.88;46.24;100678.25;10264412;28;20054;-61
2023/08/11 10:06:27;;;;;;;2.30;1.80;;;;;;;25.97;45.69;100676.97;10254128;28;20054;-61
2023/08/11 10:11:34;;;;;;;2.78;1.50;;;;;;;26.26;46.29;100666.63;10243726;28;20050;-61
2023/08/11 10:16:38;;;;;;;3.65;1.88;;;;;;;26.42;43.75;100659.81;10265150;28;20059;-61
2023/08/11 10:21:40;;;;;;;4.30;1.95;;;;;;;26.56;43.98;100664.13;10249196;28;20059;-62
2023/08/11 10:26:42;;;;;;;2.90;1.63;;;;;;;26.67;44.63;100651.72;10262416;28;20061;-62
2023/08/11 10:31:55;;;;;;;4.13;2.13;;;;;;;27.04;43.00;100654.59;10261518;28;20047;-61
2023/08/11 10:36:57;;;;;;;2.92;1.88;;;;;;;27.81;42.32;100651.53;10246194;28;20061;-62
2023/08/11 10:42:02;;;;;;;5.20;2.08;;;;;;;27.78;41.56;100660.19;10251470;28;20054;-60
2023/08/11 10:47:04;;;;;;;2.45;1.60;;;;;;;27.79;41.60;100659.13;10258984;28;20431;-60
2023/08/11 10:52:05;;;;;;;3.83;1.97;;;;;;;27.95;40.74;100652.19;10249993;28;20601;-60
2023/08/11 10:57:07;;;;;;;3.03;1.83;;;;;;;28.09;40.93;100647.44;10253057;28;20051;-61
2023/08/11 11:02:09;;;;;;;3.67;1.93;;;;;;;28.27;41.38;100645.72;10254555;28;20424;-60
2023/08/11 11:07:12;;;;;;;;;;;;;;;28.53;40.23;100650.00;10250138;28;20135;-61
2023/08/11 11:12:14;;;;;;;1.87;1.70;;;;;;;28.67;39.83;100631.50;10243647;28;19926;-61
2023/08/11 11:17:16;;;;;;;;;;;;;;;28.88;37.88;100632.84;10262329;28;20054;-61
2023/08/11 11:22:17;;;;;;;2.65;1.60;;;;;;;29.05;38.65;100627.50;10220886;28;19949;-61
2023/08/11 11:27:19;;;;;;;3.47;1.70;;;;;;;29.09;37.60;100623.22;10259011;28;20472;-61
2023/08/11 11:32:21;;;;;;;3.13;1.50;;;;;;;29.20;38.25;100610.56;10258515;28;20263;-61
2023/08/11 11:37:23;;;;;;;1.50;1.23;;;;;;;29.34;38.85;100606.56;10262581;28;20094;-61
2023/08/11 11:42:29;;;;;;;3.42;1.58;;;;;;;29.51;37.37;100603.09;10249091;28;20066;-61
2023/08/11 11:47:31;;;;;;;6.10;1.40;;;;;;;29.63;37.50;100606.63;10249816;28;20095;-61
2023/08/11 11:52:33;;;;;;;2.28;1.25;;;;;;;29.81;36.81;100589.22;10255850;28;20570;-61
2023/08/11 11:57:35;;;;;;;1.70;1.30;;;;;;;29.82;37.01;100585.41;10261338;28;20276;-61
2023/08/11 12:02:36;;;;;;;1.97;1.33;;;;;;;29.91;37.31;100589.41;10267387;28;20665;-61
2023/08/11 12:07:38;;;;;;;6.22;1.20;;;;;;;30.02;35.76;100584.94;10259476;28;20636;-61
2023/08/11 12:12:39;;;;;;;2.83;1.20;;;;;;;30.14;34.75;100582.16;10252824;28;20050;-61
2023/08/11 12:17:41;;;;;;;1.60;0.93;;;;;;;30.14;36.88;100582.97;10266848;28;20793;-61
2023/08/11 12:22:42;;;;;;;1.40;1.13;;;;;;;30.38;36.32;100579.31;10253212;28;20054;-61
2023/08/11 12:27:44;;;;;;;0.80;0.80;;;;;;;30.44;34.03;100589.31;10265748;28;20428;-61
2023/08/11 12:32:46;;;;;;;1.10;0.90;;;;;;;30.49;34.51;100594.88;10264953;28;20132;-60
2023/08/11 12:37:47;;;;;;;2.40;2.08;;;;;;;30.53;35.14;100579.59;10256277;28;20767;-61
2023/08/11 12:42:49;;;;;;;1.85;1.23;;;;;;;30.59;35.94;100575.84;10266304;28;20104;-61
2023/08/11 12:47:50;;;;;;;1.70;1.20;;;;;;;30.63;34.93;100585.25;10269371;28;20053;-61
2023/08/11 12:52:52;;;;;;;;;;;;;;;30.60;35.08;100580.25;10265737;28;20058;-60
2023/08/11 12:57:54;;;;;;;2.53;1.20;;;;;;;30.57;34.94;100575.28;10265937;28;19926;-60
2023/08/11 13:02:56;;;;;;;2.78;1.08;;;;;;;30.60;35.10;100583.00;10266158;28;20146;-60
2023/08/11 13:07:58;;;;;;;2.28;1.40;;;;;;;30.50;35.32;100574.59;10267523;28;20447;-60
2023/08/11 13:13:00;;;;;;;1.73;1.00;;;;;;;30.50;35.82;100569.09;10247279;28;20058;-60
2023/08/11 13:18:02;;;;;;;1.92;1.30;;;;;;;30.47;34.55;100564.09;10254578;28;20107;-60
2023/08/11 13:23:04;;;;;;;1.60;1.27;;;;;;;30.43;35.67;100550.06;10252958;28;20186;-60
2023/08/11 13:28:06;;;;;;;2.08;1.33;;;;;;;30.40;35.54;100546.91;10262411;28;20054;-60
2023/08/11 13:33:07;;;;;;;2.75;1.50;;;;;;;30.39;36.04;100548.03;10261918;28;20057;-60
2023/08/11 13:38:11;;;;;;;0.95;0.85;;;;;;;30.38;36.63;100543.59;10265610;28;20261;-60
2023/08/11 13:43:13;;;;;;;1.70;1.08;;;;;;;30.29;36.69;100537.69;10264557;28;20062;-60
2023/08/11 13:48:16;;;;;;;2.78;1.52;;;;;;;30.25;36.91;100540.09;10260396;28;20198;-59
2023/08/11 13:53:17;;;;;;;1.80;1.17;;;;;;;30.14;36.37;100532.75;10245321;28;20055;-60
2023/08/11 13:58:19;;;;;;;2.45;1.30;;;;;;;30.02;35.93;100521.00;10262374;28;20559;-60
2023/08/11 14:03:21;;;;;;;1.57;1.37;;;;;;;30.03;37.30;100520.75;10264549;28;20494;-60
2023/08/11 14:08:22;;;;;;;1.42;1.00;;;;;;;30.01;36.36;100511.09;10262298;28;20832;-61
2023/08/11 14:13:27;;;;;;;1.38;1.15;;;;;;;29.99;36.78;100497.63;10262658;28;20861;-60
2023/08/11 14:18:29;;;;;;;3.28;1.40;;;;;;;29.92;37.29;100497.78;10259732;28;20061;-60
2023/08/11 14:23:30;;;;;;;2.23;1.17;;;;;;;29.86;37.20;100493.31;10246207;28;20128;-60
2023/08/11 14:28:32;;;;;;;3.33;1.00;;;;;;;29.80;37.07;100495.06;10262337;28;20074;-60
2023/08/11 14:33:34;;;;;;;1.63;1.52;;;;;;;29.79;37.77;100471.47;10244825;28;20074;-60
2023/08/11 14:38:36;;;;;;;1.30;0.90;;;;;;;29.71;38.01;100469.13;10251285;28;20684;-60
2023/08/11 14:43:38;;;;;;;2.78;1.20;;;;;;;29.65;38.51;100481.06;10245883;28;20062;-60
2023/08/11 14:48:39;;;;;;;1.95;1.23;;;;;;;29.62;38.06;100468.69;10233284;28;20055;-60
2023/08/11 14:53:41;;;;;;;2.08;1.50;;;;;;;29.56;39.05;100461.44;10257927;28;20145;-60
2023/08/11 14:58:45;;;;;;;4.23;1.37;;;;;;;29.54;38.96;100460.81;10264347;28;20050;-60
2023/08/11 15:03:47;;;;;;;2.30;1.30;;;;;;;29.48;39.61;100450.84;10250325;28;20287;-60
2023/08/11 15:08:48;;;;;;;2.05;1.15;;;;;;;29.45;39.90;100451.34;10267392;28;20047;-61
2023/08/11 15:13:50;;;;;;;1.60;1.30;;;;;;;29.35;40.00;100462.09;10259218;28;20050;-61
2023/08/11 15:18:51;;;;;;;1.50;1.27;;;;;;;29.31;40.31;100460.94;10260805;28;20058;-60
2023/08/11 15:23:53;;;;;;;1.77;1.33;;;;;;;29.31;39.52;100458.19;10259471;28;20066;-60
2023/08/11 15:28:54;;;;;;;1.73;1.00;;;;;;;29.34;39.55;100457.69;10242656;28;20062;-61
2023/08/11 15:33:56;;;;;;;1.47;0.97;;;;;;;29.30;38.88;100448.28;10262769;28;20539;-61
2023/08/11 15:38:59;;;;;;;1.43;0.80;;;;;;;29.22;39.47;100453.06;10266390;28;20045;-61
2023/08/11 15:44:00;;;;;;;1.67;0.90;;;;;;;29.20;39.24;100443.38;10253659;28;20080;-61
2023/08/11 15:49:02;;;;;;;1.95;0.80;;;;;;;29.16;38.53;100439.50;10265782;28;20213;-61
2023/08/11 15:54:04;;;;;;;0.80;0.60;;;;;;;29.13;38.35;100438.06;10267226;28;20043;-60
2023/08/11 15:59:07;;;;;;;1.63;1.20;;;;;;;29.09;38.30;100437.72;10268714;28;20058;-60
2023/08/11 16:04:09;;;;;;;2.70;0.88;;;;;;;29.05;38.02;100432.94;10268192;28;20542;-60
2023/08/11 16:09:11;;;;;;;1.52;0.95;;;;;;;29.01;39.02;100432.59;10252116;28;20562;-61
2023/08/11 16:14:13;;;;;;;1.40;1.07;;;;;;;28.96;38.17;100432.50;10268682;28;20058;-62
2023/08/11 16:19:14;;;;;;;1.73;0.88;;;;;;;28.92;38.41;100428.59;10259061;28;20050;-60
2023/08/11 16:24:17;;;;;;;2.92;1.48;;;;;;;28.84;37.92;100426.19;10267547;28;20055;-60
2023/08/11 16:29:18;;;;;;;1.23;0.90;;;;;;;28.85;38.59;100428.69;10267021;28;20065;-61
2023/08/11 16:34:23;;;;;;;2.30;1.40;;;;;;;28.82;38.13;100423.69;10264765;28;20688;-60
2023/08/11 16:39:24;;;;;;;2.28;1.40;;;;;;;28.80;38.23;100417.63;10271221;28;20054;-60
2023/08/11 16:44:26;;;;;;;1.50;1.07;;;;;;;28.76;39.10;100413.72;10242574;28;20395;-60
2023/08/11 16:49:28;;;;;;;2.20;1.27;;;;;;;28.72;39.45;100416.09;10255720;28;20596;-60
2023/08/11 16:54:29;;;;;;;1.17;1.07;;;;;;;28.69;39.24;100413.84;10269646;28;20692;-60
2023/08/11 16:59:31;;;;;;;1.33;1.20;;;;;;;28.64;39.44;100407.41;10265856;28;20050;-60
2023/08/11 17:04:32;;;;;;;2.03;1.53;;;;;;;28.61;39.75;100394.22;10265652;28;20142;-61
2023/08/11 17:09:34;;;;;;;2.17;1.17;;;;;;;28.57;39.66;100394.66;10264198;28;20054;-61
2023/08/11 17:14:36;;;;;;;2.25;1.70;;;;;;;28.50;39.95;100396.69;10264578;28;20348;-61
2023/08/11 17:19:38;;;;;;;2.35;1.30;;;;;;;28.46;40.15;100392.75;10245157;28;20069;-62
2023/08/11 17:24:39;;;;;;;2.27;1.60;;;;;;;28.39;40.37;100401.09;10262829;28;20708;-61
2023/08/11 17:29:44;;;;;;;2.50;1.50;;;;;;;28.39;40.55;100392.06;10261897;28;20073;-62
2023/08/11 17:34:46;;;;;;;1.60;1.45;;;;;;;28.34;40.77;100391.94;10297815;28;20552;-61
2023/08/11 17:39:54;;;;;;;2.15;1.45;;;;;;;28.27;40.71;100399.41;10303287;28;20062;-61
2023/08/11 17:44:56;;;;;;;1.85;1.50;;;;;;;28.21;41.13;100396.56;10292619;28;20088;-61
2023/08/11 17:49:57;;;;;;;3.73;1.80;;;;;;;28.19;41.38;100397.88;10301136;28;20049;-61
2023/08/11 17:54:59;;;;;;;4.57;1.40;;;;;;;28.13;41.60;100394.16;10269679;28;20259;-62
2023/08/11 18:00:04;;;;;;;2.92;2.42;;;;;;;28.06;41.72;100388.00;10305065;28;20383;-62
2023/08/11 18:05:06;;;;;;;2.58;2.05;;;;;;;28.03;41.77;100396.69;10294815;28;20644;-61
2023/08/11 18:10:08;;;;;;;1.40;1.30;;;;;;;27.96;41.96;100387.72;10284638;28;20046;-61
2023/08/11 18:15:10;;;;;;;2.28;1.92;;;;;;;27.93;42.41;100390.91;10292175;28;20055;-61
2023/08/11 18:20:12;;;;;;;;;;;;;;;27.88;42.62;100391.63;10304963;28;20050;-61
2023/08/11 18:25:13;;;;;;;2.22;2.03;;;;;;;27.82;42.86;100389.84;10287305;28;19928;-61
2023/08/11 18:30:15;;;;;;;3.93;3.50;;;;;;;27.76;43.57;100388.88;10304070;28;20145;-61
2023/08/11 18:35:17;;;;;;;5.60;5.00;;;;;;;27.69;43.69;100388.13;10301779;28;20068;-61
2023/08/11 18:40:20;;;;;;;4.88;3.95;;;;;;;27.61;44.46;100386.56;10302821;28;20049;-61
2023/08/11 18:45:21;;;;;;;;;;;;;;;27.56;45.06;100383.69;10300096;28;20057;-62
2023/08/11 18:50:23;;;;;;;6.45;5.85;;;;;;;27.50;45.47;100395.53;10299393;28;20271;-61
2023/08/11 18:55:24;;;;;;;6.95;6.28;;;;;;;27.43;45.38;100392.91;10302427;28;20050;-61
2023/08/11 19:00:26;;;;;;;6.57;5.97;;;;;;;27.34;45.95;100392.41;10293013;28;20648;-62
2023/08/11 19:05:28;;;;;;;6.03;4.47;;;;;;;27.26;46.26;100395.44;10295577;28;20065;-62
2023/08/11 19:10:29;;;;;;;5.47;4.97;;;;;;;27.20;46.94;100400.97;10302727;28;20058;-61
2023/08/11 19:15:33;;;;;;;6.20;3.93;;;;;;;27.13;46.92;100406.53;10303068;28;20061;-61
2023/08/11 19:20:34;;;;;;;4.93;3.67;;;;;;;27.07;47.07;100397.34;10306595;28;20054;-63
2023/08/11 19:25:37;;;;;;;5.20;4.33;;;;;;;27.01;47.64;100402.88;10286409;28;20695;-62
2023/08/11 19:30:39;;;;;;;4.00;3.58;;;;;;;26.92;47.91;100405.13;10299283;28;20093;-62
2023/08/11 19:35:41;;;;;;;5.90;4.60;;;;;;;26.85;48.68;100405.19;10299772;28;20053;-62
2023/08/11 19:40:44;;;;;;;8.38;4.78;;;;;;;26.78;48.90;100401.69;10298882;28;20487;-62
2023/08/11 19:45:49;;;;;;;;;;;;;;;26.70;50.00;100400.09;10301894;28;20049;-61
2023/08/11 19:50:51;;;;;;;5.40;4.38;;;;;;;26.62;50.31;100393.00;10295078;28;19926;-62
2023/08/11 19:55:53;;;;;;;6.07;4.90;;;;;;;26.54;50.49;100397.91;10288531;28;20045;-61
2023/08/11 20:00:55;;;;;;;5.40;4.90;;;;;;;26.48;50.78;100393.38;10287870;28;20070;-61
2023/08/11 20:05:57;;;;;;;5.32;4.82;;;;;;;26.41;51.95;100397.00;10300155;28;20073;-60
2023/08/11 20:10:58;;;;;;;8.52;7.63;;;;;;;26.33;52.05;100389.09;10296584;28;20053;-61
2023/08/11 20:16:03;;;;;;;8.80;7.40;;;;;;;26.27;52.13;100387.25;10299487;28;20050;-62
2023/08/11 20:21:04;;;;;;;13.00;11.80;;;;;;;26.20;52.74;100389.25;10292684;28;20050;-60
2023/08/11 20:26:06;;;;;;;12.23;8.98;;;;;;;26.10;53.50;100382.38;10285451;28;20529;-61
2023/08/11 20:31:07;;;;;;;9.50;8.48;;;;;;;26.04;53.23;100382.44;10306246;28;20058;-60
2023/08/11 20:36:09;;;;;;;12.05;9.13;;;;;;;25.96;53.89;100379.94;10307160;28;20064;-60
2023/08/11 20:41:11;;;;;;;15.95;9.13;;;;;;;25.92;53.85;100385.00;10305701;28;20046;-61
2023/08/11 20:46:12;;;;;;;9.25;8.35;;;;;;;25.86;53.77;100375.81;10309320;28;20061;-61
2023/08/11 20:51:14;;;;;;;13.05;11.65;;;;;;;25.81;54.29;100369.38;10292559;28;20061;-60
2023/08/11 20:56:16;;;;;;;12.40;11.10;;;;;;;25.73;54.50;100368.59;10289937;28;20054;-60
2023/08/11 21:01:17;;;;;;;12.10;10.88;;;;;;;25.67;54.35;100365.91;10303192;28;20571;-63
2023/08/11 21:06:19;;;;;;;12.02;10.57;;;;;;;25.62;54.64;100358.38;10307555;28;20116;-61
2023/08/11 21:11:20;;;;;;;20.02;18.10;;;;;;;25.58;54.64;100368.91;10292152;28;20060;-61
2023/08/11 21:16:22;;;;;;;25.23;22.73;;;;;;;25.54;54.55;100375.84;10301905;28;20781;-60
2023/08/11 21:21:24;;;;;;;12.90;11.70;;;;;;;25.49;54.75;100363.94;10303770;28;20046;-61
2023/08/11 21:26:25;;;;;;;13.20;9.70;;;;;;;25.44;55.21;100371.94;10294495;28;20578;-60
2023/08/11 21:31:27;;;;;;;11.68;10.63;;;;;;;25.37;55.39;100361.91;10301374;28;20050;-61
2023/08/11 21:36:29;;;;;;;9.40;7.18;;;;;;;25.31;56.25;100373.69;10286469;28;20050;-60
2023/08/11 21:41:31;;;;;;;5.50;4.95;;;;;;;25.24;56.80;100368.22;10304514;28;20054;-61
2023/08/11 21:46:33;;;;;;;6.00;4.80;;;;;;;25.18;57.04;100363.66;10305801;28;20077;-60
2023/08/11 21:51:35;;;;;;;9.55;8.65;;;;;;;25.13;57.38;100371.66;10305176;28;20069;-61
2023/08/11 21:56:36;;;;;;;10.30;9.20;;;;;;;25.09;57.84;100369.59;10305534;28;20065;-60
2023/08/11 22:01:38;;;;;;;8.18;5.25;;;;;;;25.01;58.19;100357.88;10290112;28;20056;-60
2023/08/11 22:06:40;;;;;;;8.77;7.88;;;;;;;24.97;58.79;100362.06;10288890;28;20058;-63
2023/08/11 22:11:41;;;;;;;7.85;7.07;;;;;;;24.93;59.31;100360.81;10299724;28;20719;-61
2023/08/11 22:16:43;;;;;;;8.87;7.23;;;;;;;24.85;59.35;100359.19;10302863;28;20053;-61
2023/08/11 22:21:45;;;;;;;6.45;4.90;;;;;;;24.82;59.78;100361.50;10299042;28;20193;-61
2023/08/11 22:26:46;;;;;;;7.07;5.53;;;;;;;24.75;60.37;100363.41;10301521;28;20824;-61
2023/08/11 22:31:48;;;;;;;7.57;5.47;;;;;;;24.65;60.59;100363.84;10300545;28;20616;-61
2023/08/11 22:36:49;;;;;;;5.70;5.10;;;;;;;24.59;60.89;100365.56;10304945;28;20525;-61
2023/08/11 22:41:52;;;;;;;;;;;;;;;24.56;62.07;100374.13;10301301;28;20046;-61
2023/08/11 22:46:54;;;;;;;4.93;4.28;;;;;;;24.51;61.95;100360.31;10300809;28;19925;-61
2023/08/11 22:51:55;;;;;;;5.72;5.07;;;;;;;24.47;62.19;100367.22;10301030;28;20066;-64
2023/08/11 22:56:57;;;;;;;9.13;5.30;;;;;;;24.41;62.67;100358.03;10300056;28;20434;-61
2023/08/11 23:01:58;;;;;;;5.88;4.43;;;;;;;24.34;62.40;100349.88;10300168;28;20053;-60
2023/08/11 23:07:00;;;;;;;5.75;5.25;;;;;;;24.31;63.21;100349.47;10301659;28;20080;-60
2023/08/11 23:12:03;;;;;;;6.18;4.43;;;;;;;24.27;63.58;100345.50;10291803;28;20054;-60